Seneca, IL (61360)

8:51 PM CDT on May 03, 2015 (GMT -0500)
Verona | | Change Station
CLOSE
Current Station
Personal Weather Station
Location: Verona, IL
Elevation: 604 ft
Nearby Weather Stations

Elev 604 ft 41.26 °N, 88.48 °W | Updated 14 minutes ago

Overcast
Overcast
67.4 °F
Feels Like 67.4 °F
N
6.0
Wind Variable Wind from SSW
Gusts 10.0 mph

Today
High -- | Low -- °F
--% Chance of Precip.
Yesterday
High -- | Low -- °F
Precip. -- in
5:49 AM 7:53 PM
Full, 100% visible
Pressure 29.91 in
Visibility 10.0 miles
Clouds Overcast 9000 ft
Dew Point 57 °F
Humidity 69%
Rainfall 0.07 in
Snow Depth Not available.
UV 0 out of 12
Pollen 10.80 out of 12
Air Quality Not available.
Flu Activity Local Activity
METAR KC09 040135Z AUTO 19007KT 10SM OVC090 21/12 A2991 RMK AO2 LTG DSNT N AND NE T02080116

More Conditions Fewer Conditions

Pressure 29.91 in
Visibility 10.0 miles
Clouds Overcast 9000 ft
Dew Point 57 °F
Humidity 69%
Rainfall 0.07 in
Snow Depth Not available.
UV 0 out of 12
Pollen 10.80 out of 12
Air Quality Not available.
Flu Activity Local Activity
METAR KC09 040135Z AUTO 19007KT 10SM OVC090 21/12 A2991 RMK AO2 LTG DSNT N AND NE T02080116

More Conditions Fewer Conditions

Nepal has a long way to go to dig out and rebuild from a devastating earthquake. We have teamed up with several charities and organizations to make contributing to the relief effort as easy as possible.
How you can help: Portlight Strategies | Red Cross

10-Day Weather Forecast

Almanac

Astronomy

May. 03, 2015 Rise Set
Actual Time
Civil Twilight
Nautical Twilight
Astronomical Twilight
Moon
Length of Visible Light
Length of Day
Tomorrow will be .
, % of the Moon is Illuminated

Today's Extremes

State Highs State Lows

Community

WunderPhotos

Upload Photos

1,818,456 photos uploaded!

WunderBlogs® & News

Nearby

Air Quality

  Air Quality AQ Index Pollutant
Not available.

Snow Depth

Station Depth Elevation

Earthquake Activity

City Distance Mag. Time & Date
Minimum magnitude displayed is 2.5.

Coastal Water Temperatures

Place Temperature

Stations

Nearby Weather Stations

Station Location Temp. Windchill Dew Point Humidity Wind Precip. Elev Updated Type